Monday, August 20, 2018, 7:42 AM CDT
Back to Local

KDPA, Chicago/west Ch Dupage

Location: West Chicago, IL, United States Lat: 41.9
Local Time: 7:42 AM CDT (12:42 GMT) Lon: -88.25
Time Zone: US/Central Elev: 757 ft

Show me the last for .
Show Coded

Time T Td Feel RH Dir Speed Gust Alt SLP Vis Weather Sky Remarks
2018-08-20 06:52 70 65 - 84 110° 5 - 29.90 29.89 6 HZ CLR 6-hr Min Temp (7am): 69.1°F
6-hr Max Temp (7am): 73.9°F
2018-08-20 05:52 70 65 - 84 90° 5 - 29.90 29.88 7 CLR None
2018-08-20 04:52 71 65 76 81 110° 7 - 29.91 29.89 7 BKN043 None
2018-08-20 03:52 70 66 - 87 100° 6 - 29.92 29.90 7 CLR None
2018-08-20 02:52 71 66 76 84 110° 5 - 29.93 29.91 7 CLR None
2018-08-20 01:52 72 67 76 84 120° 7 - 29.93 29.91 7 CLR None
2018-08-20 00:52 74 68 78 81 130° 6 - 29.95 29.93 6 HZ CLR 6-hr Min Temp (1am): 73.0°F
6-hr Max Temp (1am): 80.1°F
24-hr Min Temp (1am): 63.0°F
24-hr Max Temp (1am): 87.1°F
2018-08-19 23:52 74 70 78 87 100° 6 - 29.96 29.94 6 BR CLR None
2018-08-19 22:52 74 69 78 84 90° 7 - 29.96 29.94 6 HZ FEW075 None
2018-08-19 21:52 74 69 78 84 90° 6 - 29.96 29.94 6 HZ CLR None
2018-08-19 20:52 75 69 79 81 80° 8 - 29.94 29.93 6 HZ CLR None
2018-08-19 19:52 77 69 80 76 100° 8 - 29.93 29.91 6 HZ CLR None
2018-08-19 18:52 80 69 84 69 80° 8 - 29.93 29.91 5 HZ BKN055 OVC070 6-hr Min Temp (7pm): 80.1°F
6-hr Max Temp (7pm): 87.1°F
2018-08-19 17:52 82 67 85 60 80° 8 - 29.93 29.91 5 HZ FEW050 None
2018-08-19 16:52 86 63 88 46 130° 3 - 29.92 29.91 6 HZ SCT065 None
2018-08-19 15:52 87 61 88 41 - Calm - 29.94 29.92 6 HZ CLR None
2018-08-19 14:52 86 64 88 48 170° 6 - 29.96 29.94 6 HZ CLR None
2018-08-19 13:52 85 65 87 51 200° 6 - 29.98 29.96 6 HZ CLR None
2018-08-19 12:52 84 65 86 52 220° 8 - 29.99 29.98 6 HZ CLR 6-hr Min Temp (1pm): 64.9°F
6-hr Max Temp (1pm): 84.0°F
2018-08-19 11:52 82 65 84 56 - - - 30.01 29.99 6 HZ SCT037 None
2018-08-19 10:52 80 65 82 60 120° 5 - 30.00 29.98 6 HZ CLR None
2018-08-19 09:52 77 66 80 68 110° 5 - 30.01 29.99 6 HZ CLR None
2018-08-19 08:52 75 70 79 84 100° 6 - 30.00 29.98 5 HZ CLR None
2018-08-19 07:52 70 68 - 93 - Calm - 29.98 29.97 3 BR CLR None

Support USWX by starting your Amazon purchase here.